createdAt,value
2023-03-02T00:01:41.508Z,5.83
2023-03-02T00:04:11.869Z,5.62
2023-03-02T00:06:38.965Z,5.75
2023-03-02T00:09:06.366Z,5.89
2023-03-02T00:11:35.336Z,5.89
2023-03-02T00:14:01.854Z,5.70
2023-03-02T00:16:28.514Z,5.69
2023-03-02T00:18:55.021Z,5.61
2023-03-02T00:21:21.721Z,5.55
2023-03-02T00:23:48.604Z,5.72
2023-03-02T00:26:15.184Z,5.81
2023-03-02T00:28:41.746Z,5.83
2023-03-02T00:31:08.544Z,5.64
2023-03-02T00:33:35.167Z,5.49
2023-03-02T00:36:02.931Z,5.48
2023-03-02T00:38:29.927Z,5.52
2023-03-02T00:40:56.567Z,5.29
2023-03-02T00:43:27.404Z,5.49
2023-03-02T00:45:56.860Z,5.51
2023-03-02T00:48:23.533Z,5.70
2023-03-02T00:50:50.619Z,5.78
2023-03-02T00:53:18.093Z,5.88
2023-03-02T00:55:53.566Z,5.78
2023-03-02T00:58:21.338Z,5.73
2023-03-02T01:00:48.135Z,5.75
2023-03-02T01:03:15.036Z,5.75
2023-03-02T01:05:41.729Z,6.12
2023-03-02T01:08:08.351Z,5.99
2023-03-02T01:10:35.172Z,5.90
2023-03-02T01:13:01.801Z,5.90
2023-03-02T01:15:28.374Z,6.26
2023-03-02T01:17:54.905Z,6.10
2023-03-02T01:20:21.478Z,5.82
2023-03-02T01:22:48.075Z,5.50
2023-03-02T01:25:14.644Z,5.71
2023-03-02T01:27:41.354Z,5.87
2023-03-02T01:30:08.579Z,5.78
2023-03-02T01:32:35.399Z,5.70
2023-03-02T01:35:02.123Z,5.73
2023-03-02T01:37:28.938Z,5.73
2023-03-02T01:39:55.447Z,5.80
2023-03-02T01:42:22.113Z,5.71
2023-03-02T01:44:51.493Z,5.76
2023-03-02T01:47:23.118Z,5.78
2023-03-02T01:50:01.201Z,5.66
2023-03-02T01:52:32.169Z,5.66
2023-03-02T01:55:03.292Z,5.57
2023-03-02T01:57:34.529Z,5.51
2023-03-02T02:00:08.498Z,5.69
